Terminal Aerodrome Forecast
Issued by NWS

Home | Current Version | Previous Version | Text Only | Print | Product List | Glossary On
Versions: 1 2 3 4 5 6 7 8 9 10 11 12 13 14 15 16 17 18 19 20 21 22
000
FTUS45 KBOU 252048 AAA
TAFAPA
TAF AMD
KAPA 252048Z 2521/2618 33011KT P6SM VCTS FEW080CB SCT150 BKN220
      TEMPO 2521/2601 VRB15G25KT -TSRA BKN060CB
     FM260400 VRB06KT P6SM VCSH SCT050 BKN080
     FM260600 17011KT P6SM -SHRA SCT020 BKN050
     FM261000 19010KT P6SM SCT020 BKN050
     FM261700 32008KT P6SM VCSH SCT050 BKN120=

USA.gov is the U.S. government's official web portal to all federal, state and local government web resources and services.